sensor_id;sensor_type;location;lat;lon;timestamp;temperature;humidity
11423;DHT22;5768;51.476;7.210;2023-07-20T00:04:50;18.60;16.00
11423;DHT22;5768;51.476;7.210;2023-07-20T00:10:15;18.40;16.40
11423;DHT22;5768;51.476;7.210;2023-07-20T00:15:36;18.30;16.40
11423;DHT22;5768;51.476;7.210;2023-07-20T00:20:59;18.20;16.50
11423;DHT22;5768;51.476;7.210;2023-07-20T00:26:20;18.40;16.40
11423;DHT22;5768;51.476;7.210;2023-07-20T00:31:41;18.40;16.50
11423;DHT22;5768;51.476;7.210;2023-07-20T00:37:04;18.40;16.50
11423;DHT22;5768;51.476;7.210;2023-07-20T00:42:25;18.50;16.40
11423;DHT22;5768;51.476;7.210;2023-07-20T00:47:46;18.80;16.50
11423;DHT22;5768;51.476;7.210;2023-07-20T00:53:09;18.40;16.40
11423;DHT22;5768;51.476;7.210;2023-07-20T00:58:30;18.40;16.50
11423;DHT22;5768;51.476;7.210;2023-07-20T01:03:51;18.10;16.90
11423;DHT22;5768;51.476;7.210;2023-07-20T01:09:15;18.30;17.00
11423;DHT22;5768;51.476;7.210;2023-07-20T01:14:40;18.30;17.00
11423;DHT22;5768;51.476;7.210;2023-07-20T01:20:02;18.20;17.20
11423;DHT22;5768;51.476;7.210;2023-07-20T01:25:34;18.40;17.00
11423;DHT22;5768;51.476;7.210;2023-07-20T01:31:17;18.60;17.40
11423;DHT22;5768;51.476;7.210;2023-07-20T01:36:42;18.20;17.60
11423;DHT22;5768;51.476;7.210;2023-07-20T01:42:04;18.10;18.00
11423;DHT22;5768;51.476;7.210;2023-07-20T01:47:27;17.30;18.90
11423;DHT22;5768;51.476;7.210;2023-07-20T01:52:47;17.80;19.70
11423;DHT22;5768;51.476;7.210;2023-07-20T01:58:08;17.90;19.60
11423;DHT22;5768;51.476;7.210;2023-07-20T02:03:31;18.10;19.40
11423;DHT22;5768;51.476;7.210;2023-07-20T02:08:51;18.10;19.20
11423;DHT22;5768;51.476;7.210;2023-07-20T02:14:13;18.10;19.20
11423;DHT22;5768;51.476;7.210;2023-07-20T02:19:35;17.70;19.10
11423;DHT22;5768;51.476;7.210;2023-07-20T02:24:55;17.80;19.80
11423;DHT22;5768;51.476;7.210;2023-07-20T02:30:16;17.70;20.60
11423;DHT22;5768;51.476;7.210;2023-07-20T02:35:40;17.50;21.80
11423;DHT22;5768;51.476;7.210;2023-07-20T02:41:01;17.20;23.70
11423;DHT22;5768;51.476;7.210;2023-07-20T02:46:22;17.30;25.40
11423;DHT22;5768;51.476;7.210;2023-07-20T02:51:44;17.20;26.60
11423;DHT22;5768;51.476;7.210;2023-07-20T02:57:05;17.10;27.80
11423;DHT22;5768;51.476;7.210;2023-07-20T03:02:30;17.00;28.90
11423;DHT22;5768;51.476;7.210;2023-07-20T03:07:52;17.10;29.90
11423;DHT22;5768;51.476;7.210;2023-07-20T03:13:13;17.00;32.70
11423;DHT22;5768;51.476;7.210;2023-07-20T03:18:35;17.20;31.60
11423;DHT22;5768;51.476;7.210;2023-07-20T03:23:57;17.30;29.60
11423;DHT22;5768;51.476;7.210;2023-07-20T03:29:18;17.40;29.50
11423;DHT22;5768;51.476;7.210;2023-07-20T03:34:40;17.30;28.60
11423;DHT22;5768;51.476;7.210;2023-07-20T03:40:28;17.10;29.70
11423;DHT22;5768;51.476;7.210;2023-07-20T04:04:53;17.30;28.90
11423;DHT22;5768;51.476;7.210;2023-07-20T04:09:55;17.30;28.90
11423;DHT22;5768;51.476;7.210;2023-07-20T04:14:57;17.20;29.70
11423;DHT22;5768;51.476;7.210;2023-07-20T04:20:01;17.10;38.90
11423;DHT22;5768;51.476;7.210;2023-07-20T04:25:04;17.20;81.30
11423;DHT22;5768;51.476;7.210;2023-07-20T04:30:08;17.00;29.80
11423;DHT22;5768;51.476;7.210;2023-07-20T04:35:48;17.00;82.30
11423;DHT22;5768;51.476;7.210;2023-07-20T04:41:09;17.30;82.10
11423;DHT22;5768;51.476;7.210;2023-07-20T04:46:12;17.30;29.70
11423;DHT22;5768;51.476;7.210;2023-07-20T04:51:16;17.20;37.30
11423;DHT22;5768;51.476;7.210;2023-07-20T04:56:21;17.30;32.10
11423;DHT22;5768;51.476;7.210;2023-07-20T05:01:24;17.60;27.60
11423;DHT22;5768;51.476;7.210;2023-07-20T05:06:28;17.60;26.70
11423;DHT22;5768;51.476;7.210;2023-07-20T05:11:31;17.70;26.40
11423;DHT22;5768;51.476;7.210;2023-07-20T05:16:33;17.50;28.10
11423;DHT22;5768;51.476;7.210;2023-07-20T05:21:36;17.50;27.20
11423;DHT22;5768;51.476;7.210;2023-07-20T05:26:39;17.50;27.40
11423;DHT22;5768;51.476;7.210;2023-07-20T05:31:41;17.60;24.50
11423;DHT22;5768;51.476;7.210;2023-07-20T05:36:44;17.80;23.00
11423;DHT22;5768;51.476;7.210;2023-07-20T05:41:47;17.90;22.30
11423;DHT22;5768;51.476;7.210;2023-07-20T05:46:49;17.90;22.90
11423;DHT22;5768;51.476;7.210;2023-07-20T05:51:52;18.00;22.00
11423;DHT22;5768;51.476;7.210;2023-07-20T05:56:54;18.00;21.10
11423;DHT22;5768;51.476;7.210;2023-07-20T06:01:57;18.00;20.90
11423;DHT22;5768;51.476;7.210;2023-07-20T06:07:00;18.20;20.00
11423;DHT22;5768;51.476;7.210;2023-07-20T06:12:26;18.30;19.80
11423;DHT22;5768;51.476;7.210;2023-07-20T06:17:47;18.50;19.50
11423;DHT22;5768;51.476;7.210;2023-07-20T06:23:10;19.00;18.80
11423;DHT22;5768;51.476;7.210;2023-07-20T06:28:31;18.90;18.00
11423;DHT22;5768;51.476;7.210;2023-07-20T06:33:52;18.70;17.90
11423;DHT22;5768;51.476;7.210;2023-07-20T06:39:14;18.70;17.90
11423;DHT22;5768;51.476;7.210;2023-07-20T06:44:16;18.90;18.10
11423;DHT22;5768;51.476;7.210;2023-07-20T06:49:25;18.90;17.90
11423;DHT22;5768;51.476;7.210;2023-07-20T06:54:29;19.00;17.30
11423;DHT22;5768;51.476;7.210;2023-07-20T06:59:31;19.40;16.90
11423;DHT22;5768;51.476;7.210;2023-07-20T07:04:33;19.70;16.20
11423;DHT22;5768;51.476;7.210;2023-07-20T07:09:37;20.10;16.10
11423;DHT22;5768;51.476;7.210;2023-07-20T07:14:39;19.60;16.00
11423;DHT22;5768;51.476;7.210;2023-07-20T07:19:42;19.30;16.30
11423;DHT22;5768;51.476;7.210;2023-07-20T07:24:46;19.70;16.30
11423;DHT22;5768;51.476;7.210;2023-07-20T07:29:48;20.20;15.50
11423;DHT22;5768;51.476;7.210;2023-07-20T07:34:51;21.00;14.80
11423;DHT22;5768;51.476;7.210;2023-07-20T07:39:55;21.40;14.10
11423;DHT22;5768;51.476;7.210;2023-07-20T07:44:58;21.60;13.70
11423;DHT22;5768;51.476;7.210;2023-07-20T07:50:03;21.90;13.70
11423;DHT22;5768;51.476;7.210;2023-07-20T07:55:08;21.60;13.70
11423;DHT22;5768;51.476;7.210;2023-07-20T08:00:11;20.70;13.90
11423;DHT22;5768;51.476;7.210;2023-07-20T08:05:15;20.10;13.60
11423;DHT22;5768;51.476;7.210;2023-07-20T08:10:19;20.20;14.10
11423;DHT22;5768;51.476;7.210;2023-07-20T08:15:21;19.40;13.90
11423;DHT22;5768;51.476;7.210;2023-07-20T08:20:24;19.50;14.30
11423;DHT22;5768;51.476;7.210;2023-07-20T08:25:28;19.70;14.50
11423;DHT22;5768;51.476;7.210;2023-07-20T08:30:40;19.90;14.50
11423;DHT22;5768;51.476;7.210;2023-07-20T08:35:46;19.90;14.00
11423;DHT22;5768;51.476;7.210;2023-07-20T08:40:52;20.50;13.50
11423;DHT22;5768;51.476;7.210;2023-07-20T09:15:54;21.00;12.50
11423;DHT22;5768;51.476;7.210;2023-07-20T09:21:01;20.70;12.20
11423;DHT22;5768;51.476;7.210;2023-07-20T09:26:10;21.20;12.40
11423;DHT22;5768;51.476;7.210;2023-07-20T09:31:20;21.90;11.90
11423;DHT22;5768;51.476;7.210;2023-07-20T09:36:24;21.80;11.60
11423;DHT22;5768;51.476;7.210;2023-07-20T09:41:28;22.00;11.70
11423;DHT22;5768;51.476;7.210;2023-07-20T09:46:43;22.30;11.60
11423;DHT22;5768;51.476;7.210;2023-07-20T09:51:48;21.50;11.50
11423;DHT22;5768;51.476;7.210;2023-07-20T09:56:51;21.40;11.50
11423;DHT22;5768;51.476;7.210;2023-07-20T10:01:58;22.00;11.30
11423;DHT22;5768;51.476;7.210;2023-07-20T10:07:05;22.70;11.20
11423;DHT22;5768;51.476;7.210;2023-07-20T10:12:12;22.70;11.30
11423;DHT22;5768;51.476;7.210;2023-07-20T10:17:17;22.50;11.30
11423;DHT22;5768;51.476;7.210;2023-07-20T10:22:25;21.70;11.30
11423;DHT22;5768;51.476;7.210;2023-07-20T10:27:31;21.90;10.80
11423;DHT22;5768;51.476;7.210;2023-07-20T10:32:36;22.80;10.60
11423;DHT22;5768;51.476;7.210;2023-07-20T10:37:49;22.80;10.20
11423;DHT22;5768;51.476;7.210;2023-07-20T10:42:57;23.40;10.50
11423;DHT22;5768;51.476;7.210;2023-07-20T10:48:05;22.50;10.50
11423;DHT22;5768;51.476;7.210;2023-07-20T10:53:12;22.00;10.60
11423;DHT22;5768;51.476;7.210;2023-07-20T10:58:21;22.30;10.60
11423;DHT22;5768;51.476;7.210;2023-07-20T11:03:32;22.60;10.60
11423;DHT22;5768;51.476;7.210;2023-07-20T11:08:40;22.80;10.20
11423;DHT22;5768;51.476;7.210;2023-07-20T11:13:54;22.60;10.30
11423;DHT22;5768;51.476;7.210;2023-07-20T11:18:59;23.50;10.10
11423;DHT22;5768;51.476;7.210;2023-07-20T11:24:03;24.00;9.80
11423;DHT22;5768;51.476;7.210;2023-07-20T11:29:06;23.80;9.80
11423;DHT22;5768;51.476;7.210;2023-07-20T11:34:12;24.10;10.10
11423;DHT22;5768;51.476;7.210;2023-07-20T11:39:17;23.90;10.10
11423;DHT22;5768;51.476;7.210;2023-07-20T11:44:22;24.30;9.80
11423;DHT22;5768;51.476;7.210;2023-07-20T11:49:28;24.80;9.80
11423;DHT22;5768;51.476;7.210;2023-07-20T11:54:31;24.50;9.70
11423;DHT22;5768;51.476;7.210;2023-07-20T11:59:34;24.90;9.70
11423;DHT22;5768;51.476;7.210;2023-07-20T12:04:39;25.80;9.20
11423;DHT22;5768;51.476;7.210;2023-07-20T12:09:41;26.00;9.10
11423;DHT22;5768;51.476;7.210;2023-07-20T12:14:43;24.20;9.30
11423;DHT22;5768;51.476;7.210;2023-07-20T12:19:47;23.60;9.50
11423;DHT22;5768;51.476;7.210;2023-07-20T12:24:52;23.60;9.60
11423;DHT22;5768;51.476;7.210;2023-07-20T12:29:54;24.60;9.50
11423;DHT22;5768;51.476;7.210;2023-07-20T12:34:59;25.30;9.10
11423;DHT22;5768;51.476;7.210;2023-07-20T12:40:01;25.70;9.00
11423;DHT22;5768;51.476;7.210;2023-07-20T12:45:06;25.70;9.00
11423;DHT22;5768;51.476;7.210;2023-07-20T12:50:10;27.30;8.60
11423;DHT22;5768;51.476;7.210;2023-07-20T12:55:13;28.30;8.40
11423;DHT22;5768;51.476;7.210;2023-07-20T13:00:16;27.90;8.30
11423;DHT22;5768;51.476;7.210;2023-07-20T13:05:21;27.50;8.40
11423;DHT22;5768;51.476;7.210;2023-07-20T13:10:24;26.50;8.50
11423;DHT22;5768;51.476;7.210;2023-07-20T13:15:30;26.80;8.50
11423;DHT22;5768;51.476;7.210;2023-07-20T13:20:35;26.20;8.60
11423;DHT22;5768;51.476;7.210;2023-07-20T13:25:38;25.70;8.60
11423;DHT22;5768;51.476;7.210;2023-07-20T13:30:41;26.10;8.60
11423;DHT22;5768;51.476;7.210;2023-07-20T13:35:47;26.80;8.40
11423;DHT22;5768;51.476;7.210;2023-07-20T13:40:49;27.40;8.50
11423;DHT22;5768;51.476;7.210;2023-07-20T13:45:53;31.30;7.80
11423;DHT22;5768;51.476;7.210;2023-07-20T13:50:56;35.00;6.90
11423;DHT22;5768;51.476;7.210;2023-07-20T13:55:59;32.20;7.00
11423;DHT22;5768;51.476;7.210;2023-07-20T14:01:01;29.50;7.50
11423;DHT22;5768;51.476;7.210;2023-07-20T14:06:04;27.50;7.80
11423;DHT22;5768;51.476;7.210;2023-07-20T14:11:07;26.90;8.00
11423;DHT22;5768;51.476;7.210;2023-07-20T14:16:09;29.40;7.60
11423;DHT22;5768;51.476;7.210;2023-07-20T14:21:13;29.40;7.60
11423;DHT22;5768;51.476;7.210;2023-07-20T14:26:16;30.10;7.30
11423;DHT22;5768;51.476;7.210;2023-07-20T14:31:18;29.00;7.40
11423;DHT22;5768;51.476;7.210;2023-07-20T14:36:22;27.30;8.00
11423;DHT22;5768;51.476;7.210;2023-07-20T14:41:24;26.80;8.00
11423;DHT22;5768;51.476;7.210;2023-07-20T14:46:27;26.90;7.90
11423;DHT22;5768;51.476;7.210;2023-07-20T14:51:31;27.60;7.90
11423;DHT22;5768;51.476;7.210;2023-07-20T14:56:34;29.30;7.80
11423;DHT22;5768;51.476;7.210;2023-07-20T15:01:36;32.80;7.00
11423;DHT22;5768;51.476;7.210;2023-07-20T15:06:40;32.90;6.80
11423;DHT22;5768;51.476;7.210;2023-07-20T15:11:42;30.90;7.20
11423;DHT22;5768;51.476;7.210;2023-07-20T15:16:45;30.20;7.30
11423;DHT22;5768;51.476;7.210;2023-07-20T15:21:49;29.50;7.40
11423;DHT22;5768;51.476;7.210;2023-07-20T15:26:51;34.60;6.50
11423;DHT22;5768;51.476;7.210;2023-07-20T15:31:53;33.80;6.70
11423;DHT22;5768;51.476;7.210;2023-07-20T15:36:57;37.30;6.00
11423;DHT22;5768;51.476;7.210;2023-07-20T15:42:00;41.00;5.50
11423;DHT22;5768;51.476;7.210;2023-07-20T15:47:02;37.10;5.80
11423;DHT22;5768;51.476;7.210;2023-07-20T15:52:08;34.00;6.10
11423;DHT22;5768;51.476;7.210;2023-07-20T15:57:15;34.30;6.30
11423;DHT22;5768;51.476;7.210;2023-07-20T16:02:17;34.00;6.30
11423;DHT22;5768;51.476;7.210;2023-07-20T16:07:21;34.30;6.30
11423;DHT22;5768;51.476;7.210;2023-07-20T16:12:23;35.50;6.00
11423;DHT22;5768;51.476;7.210;2023-07-20T16:17:28;39.40;5.60
11423;DHT22;5768;51.476;7.210;2023-07-20T16:22:32;37.80;5.60
11423;DHT22;5768;51.476;7.210;2023-07-20T16:27:34;38.90;5.30
11423;DHT22;5768;51.476;7.210;2023-07-20T16:32:36;41.40;5.10
11423;DHT22;5768;51.476;7.210;2023-07-20T16:37:40;40.70;5.10
11423;DHT22;5768;51.476;7.210;2023-07-20T16:42:42;41.00;5.00
11423;DHT22;5768;51.476;7.210;2023-07-20T16:47:44;41.80;4.90
11423;DHT22;5768;51.476;7.210;2023-07-20T16:53:07;42.70;4.70
11423;DHT22;5768;51.476;7.210;2023-07-20T16:58:29;43.00;4.80
11423;DHT22;5768;51.476;7.210;2023-07-20T17:03:49;43.60;4.60
11423;DHT22;5768;51.476;7.210;2023-07-20T17:09:11;40.90;4.80
11423;DHT22;5768;51.476;7.210;2023-07-20T17:14:34;36.30;5.40
11423;DHT22;5768;51.476;7.210;2023-07-20T17:19:38;33.60;5.90
11423;DHT22;5768;51.476;7.210;2023-07-20T17:24:41;32.20;6.30
11423;DHT22;5768;51.476;7.210;2023-07-20T17:29:44;31.20;6.60
11423;DHT22;5768;51.476;7.210;2023-07-20T17:34:46;30.90;6.60
11423;DHT22;5768;51.476;7.210;2023-07-20T17:39:51;33.90;6.30
11423;DHT22;5768;51.476;7.210;2023-07-20T17:44:53;37.10;5.70
11423;DHT22;5768;51.476;7.210;2023-07-20T17:49:55;39.20;5.30
11423;DHT22;5768;51.476;7.210;2023-07-20T17:54:59;38.50;5.20
11423;DHT22;5768;51.476;7.210;2023-07-20T18:00:02;36.40;5.60
11423;DHT22;5768;51.476;7.210;2023-07-20T18:05:05;33.30;6.10
11423;DHT22;5768;51.476;7.210;2023-07-20T18:10:09;31.10;6.60
11423;DHT22;5768;51.476;7.210;2023-07-20T18:15:12;31.50;6.60
11423;DHT22;5768;51.476;7.210;2023-07-20T18:20:14;30.20;6.80
11423;DHT22;5768;51.476;7.210;2023-07-20T18:25:18;29.30;7.00
11423;DHT22;5768;51.476;7.210;2023-07-20T18:30:20;28.30;7.30
11423;DHT22;5768;51.476;7.210;2023-07-20T18:35:22;27.70;7.50
11423;DHT22;5768;51.476;7.210;2023-07-20T18:40:26;27.00;7.70
11423;DHT22;5768;51.476;7.210;2023-07-20T18:45:28;26.10;7.90
11423;DHT22;5768;51.476;7.210;2023-07-20T18:50:31;25.70;8.10
11423;DHT22;5768;51.476;7.210;2023-07-20T18:55:36;25.50;8.20
11423;DHT22;5768;51.476;7.210;2023-07-20T19:00:38;25.40;8.30
11423;DHT22;5768;51.476;7.210;2023-07-20T19:05:40;25.20;8.40
11423;DHT22;5768;51.476;7.210;2023-07-20T19:10:46;25.10;8.50
11423;DHT22;5768;51.476;7.210;2023-07-20T19:15:49;24.90;8.50
11423;DHT22;5768;51.476;7.210;2023-07-20T19:20:58;24.70;8.50
11423;DHT22;5768;51.476;7.210;2023-07-20T19:26:08;24.50;8.60
11423;DHT22;5768;51.476;7.210;2023-07-20T19:31:12;24.20;8.70
11423;DHT22;5768;51.476;7.210;2023-07-20T19:41:19;24.20;8.70
11423;DHT22;5768;51.476;7.210;2023-07-20T19:46:21;24.10;8.80
11423;DHT22;5768;51.476;7.210;2023-07-20T19:51:24;23.80;8.90
11423;DHT22;5768;51.476;7.210;2023-07-20T19:56:29;23.70;9.00
11423;DHT22;5768;51.476;7.210;2023-07-20T20:01:31;23.50;9.00
11423;DHT22;5768;51.476;7.210;2023-07-20T20:06:33;23.50;9.20
11423;DHT22;5768;51.476;7.210;2023-07-20T20:11:37;23.30;9.30
11423;DHT22;5768;51.476;7.210;2023-07-20T20:16:39;23.20;9.30
11423;DHT22;5768;51.476;7.210;2023-07-20T20:21:41;23.10;9.30
11423;DHT22;5768;51.476;7.210;2023-07-20T20:26:45;23.10;9.20
11423;DHT22;5768;51.476;7.210;2023-07-20T20:31:47;23.00;9.40
11423;DHT22;5768;51.476;7.210;2023-07-20T20:36:49;22.90;9.50
11423;DHT22;5768;51.476;7.210;2023-07-20T20:41:53;22.90;9.40
11423;DHT22;5768;51.476;7.210;2023-07-20T20:46:55;22.80;9.50
11423;DHT22;5768;51.476;7.210;2023-07-20T20:52:03;22.80;9.50
11423;DHT22;5768;51.476;7.210;2023-07-20T20:57:07;22.60;9.60
11423;DHT22;5768;51.476;7.210;2023-07-20T21:02:09;22.60;9.70
11423;DHT22;5768;51.476;7.210;2023-07-20T21:07:14;22.50;9.70
11423;DHT22;5768;51.476;7.210;2023-07-20T21:12:18;22.40;9.60
11423;DHT22;5768;51.476;7.210;2023-07-20T21:17:20;22.20;9.70
11423;DHT22;5768;51.476;7.210;2023-07-20T21:22:22;22.30;9.80
11423;DHT22;5768;51.476;7.210;2023-07-20T21:27:25;22.20;10.00
11423;DHT22;5768;51.476;7.210;2023-07-20T21:32:27;22.00;10.30
11423;DHT22;5768;51.476;7.210;2023-07-20T21:37:30;21.40;10.70
11423;DHT22;5768;51.476;7.210;2023-07-20T21:42:33;20.70;11.80
11423;DHT22;5768;51.476;7.210;2023-07-20T21:47:36;20.00;12.50
11423;DHT22;5768;51.476;7.210;2023-07-20T21:52:38;19.80;13.40
11423;DHT22;5768;51.476;7.210;2023-07-20T21:57:41;20.00;14.20
11423;DHT22;5768;51.476;7.210;2023-07-20T22:02:43;19.60;14.20
11423;DHT22;5768;51.476;7.210;2023-07-20T22:07:45;19.40;14.60
11423;DHT22;5768;51.476;7.210;2023-07-20T22:12:49;19.70;15.90
11423;DHT22;5768;51.476;7.210;2023-07-20T22:17:52;19.60;15.50
11423;DHT22;5768;51.476;7.210;2023-07-20T22:22:54;19.70;16.30
11423;DHT22;5768;51.476;7.210;2023-07-20T22:28:00;19.60;16.10
11423;DHT22;5768;51.476;7.210;2023-07-20T22:33:03;19.60;16.30
11423;DHT22;5768;51.476;7.210;2023-07-20T22:38:05;19.60;16.90
11423;DHT22;5768;51.476;7.210;2023-07-20T22:43:08;19.60;17.00
11423;DHT22;5768;51.476;7.210;2023-07-20T22:48:11;19.70;16.70
11423;DHT22;5768;51.476;7.210;2023-07-20T22:53:13;19.60;16.70
11423;DHT22;5768;51.476;7.210;2023-07-20T22:58:17;19.50;16.80
11423;DHT22;5768;51.476;7.210;2023-07-20T23:03:20;19.40;17.20
11423;DHT22;5768;51.476;7.210;2023-07-20T23:08:22;19.40;17.10
11423;DHT22;5768;51.476;7.210;2023-07-20T23:13:25;19.40;17.30
11423;DHT22;5768;51.476;7.210;2023-07-20T23:18:29;19.30;17.40
11423;DHT22;5768;51.476;7.210;2023-07-20T23:23:31;19.30;17.60
11423;DHT22;5768;51.476;7.210;2023-07-20T23:28:37;19.20;17.90
11423;DHT22;5768;51.476;7.210;2023-07-20T23:33:39;19.10;17.50
11423;DHT22;5768;51.476;7.210;2023-07-20T23:38:41;19.00;17.80
11423;DHT22;5768;51.476;7.210;2023-07-20T23:43:46;18.80;18.80
11423;DHT22;5768;51.476;7.210;2023-07-20T23:48:49;18.80;19.00
11423;DHT22;5768;51.476;7.210;2023-07-20T23:53:52;18.60;19.20
11423;DHT22;5768;51.476;7.210;2023-07-20T23:58:57;18.60;19.10
